createdAt,value
2022-11-09T00:02:28.812Z,5.10
2022-11-09T00:05:31.950Z,6.75
2022-11-09T00:08:38.176Z,7.30
2022-11-09T00:11:41.377Z,8.68
2022-11-09T00:14:44.545Z,8.32
2022-11-09T00:17:47.669Z,7.85
2022-11-09T00:20:50.812Z,15.07
2022-11-09T00:23:55.753Z,14.20
2022-11-09T00:26:58.947Z,9.23
2022-11-09T00:30:06.250Z,10.02
2022-11-09T00:33:11.091Z,16.60
2022-11-09T00:36:14.385Z,15.13
2022-11-09T00:39:18.947Z,12.48
2022-11-09T00:42:22.224Z,12.10
2022-11-09T00:45:27.256Z,5.10
2022-11-09T00:48:30.805Z,4.70
2022-11-09T00:51:34.309Z,4.10
2022-11-09T00:54:39.148Z,4.00
2022-11-09T00:57:42.536Z,3.97
2022-11-09T01:00:46.087Z,4.20
2022-11-09T01:03:49.956Z,4.25
2022-11-09T01:06:53.158Z,4.32
2022-11-09T01:09:57.743Z,5.40
2022-11-09T01:13:00.944Z,4.53
2022-11-09T01:16:07.575Z,4.50
2022-11-09T01:19:12.899Z,4.20
2022-11-09T01:22:16.134Z,6.60
2022-11-09T01:25:20.630Z,5.82
2022-11-09T01:28:24.004Z,5.47
2022-11-09T01:31:27.525Z,4.70
2022-11-09T01:34:31.036Z,6.18
2022-11-09T01:37:34.797Z,5.53
2022-11-09T01:40:41.488Z,4.45
2022-11-09T01:43:45.113Z,5.00
2022-11-09T01:46:52.900Z,4.40
2022-11-09T01:50:00.139Z,4.30
2022-11-09T01:53:05.995Z,4.17
2022-11-09T01:56:14.603Z,3.70
2022-11-09T01:59:21.963Z,3.90
2022-11-09T02:02:25.647Z,3.70
2022-11-09T02:05:33.289Z,4.05
2022-11-09T02:08:36.902Z,3.50
2022-11-09T02:11:42.048Z,3.90
2022-11-09T02:14:46.588Z,4.40
2022-11-09T02:17:53.712Z,3.83
2022-11-09T02:20:59.253Z,4.57
2022-11-09T02:24:02.785Z,4.75
2022-11-09T02:27:07.912Z,5.50
2022-11-09T02:30:13.143Z,4.00
2022-11-09T02:33:18.846Z,3.95
2022-11-09T02:36:24.564Z,4.45
2022-11-09T02:39:29.869Z,3.63
2022-11-09T02:42:33.051Z,3.70
2022-11-09T02:45:36.784Z,4.60
2022-11-09T02:48:40.132Z,4.75
2022-11-09T02:51:44.920Z,7.70
2022-11-09T02:54:48.778Z,6.10
2022-11-09T02:57:53.412Z,13.48
2022-11-09T03:00:56.578Z,4.65
2022-11-09T03:04:00.915Z,6.80
2022-11-09T03:07:06.131Z,7.18
2022-11-09T03:10:10.373Z,5.85
2022-11-09T03:13:14.058Z,3.75
2022-11-09T03:16:17.254Z,4.15
2022-11-09T03:19:20.463Z,3.58
2022-11-09T03:22:28.912Z,3.63
2022-11-09T03:25:32.092Z,4.78
2022-11-09T03:28:36.814Z,5.35
2022-11-09T03:31:40.181Z,5.45
2022-11-09T03:34:46.269Z,4.55
2022-11-09T03:37:52.368Z,4.80
2022-11-09T03:40:56.338Z,5.55
2022-11-09T03:43:59.728Z,4.95
2022-11-09T03:47:02.962Z,4.40
2022-11-09T03:50:07.048Z,4.47
2022-11-09T03:53:12.419Z,4.43
2022-11-09T03:56:15.535Z,3.78
2022-11-09T03:59:19.141Z,3.67
2022-11-09T04:02:22.229Z,4.32
2022-11-09T04:05:25.615Z,4.32
2022-11-09T04:08:30.127Z,3.90
2022-11-09T04:11:33.239Z,3.80
2022-11-09T04:14:36.478Z,4.13
2022-11-09T04:17:39.922Z,3.70
2022-11-09T04:20:47.993Z,3.55
2022-11-09T04:23:52.456Z,3.85
2022-11-09T04:26:55.704Z,4.10
2022-11-09T04:29:58.980Z,4.13
2022-11-09T04:34:12.900Z,4.05
2022-11-09T04:37:16.124Z,3.63
2022-11-09T04:40:19.458Z,5.78
2022-11-09T04:43:22.855Z,4.30
2022-11-09T04:46:26.336Z,4.40
2022-11-09T04:49:30.858Z,4.90
2022-11-09T04:52:34.140Z,5.00
2022-11-09T04:55:37.857Z,5.43
2022-11-09T04:58:41.303Z,4.32
2022-11-09T05:01:44.612Z,4.20
2022-11-09T05:04:49.182Z,4.00
2022-11-09T05:07:52.308Z,4.50
2022-11-09T05:10:57.652Z,4.20
2022-11-09T05:14:01.404Z,4.90
2022-11-09T05:17:04.607Z,4.90
2022-11-09T05:20:10.342Z,4.80
2022-11-09T05:23:31.251Z,5.30
2022-11-09T05:26:35.740Z,4.78
2022-11-09T05:29:39.064Z,5.28
2022-11-09T05:32:42.525Z,5.47
2022-11-09T05:35:47.019Z,5.00
2022-11-09T05:38:50.630Z,5.38
2022-11-09T05:41:53.744Z,5.10
2022-11-09T05:44:56.890Z,5.07
2022-11-09T05:48:04.379Z,4.43
2022-11-09T05:51:10.499Z,6.60
2022-11-09T05:54:14.503Z,4.60
2022-11-09T05:57:17.689Z,5.03
2022-11-09T06:00:22.000Z,4.05
2022-11-09T06:03:26.512Z,4.68
2022-11-09T06:06:31.083Z,4.25
2022-11-09T06:09:34.331Z,4.53
2022-11-09T06:12:37.403Z,4.60
2022-11-09T06:15:40.677Z,4.95
2022-11-09T06:18:44.039Z,6.18
2022-11-09T06:21:48.531Z,5.30
2022-11-09T06:24:51.944Z,5.10
2022-11-09T06:27:55.673Z,6.20
2022-11-09T06:30:59.477Z,5.93
2022-11-09T06:34:03.368Z,7.13
2022-11-09T06:37:07.875Z,9.10
2022-11-09T06:40:12.804Z,6.70
2022-11-09T06:43:15.939Z,6.43
2022-11-09T06:46:20.469Z,7.40
2022-11-09T06:49:23.860Z,6.88
2022-11-09T06:52:28.479Z,6.22
2022-11-09T06:55:32.796Z,6.35
2022-11-09T06:58:36.599Z,7.50
2022-11-09T07:01:39.747Z,8.30
2022-11-09T07:04:42.903Z,8.27
2022-11-09T07:07:47.559Z,9.25
2022-11-09T07:10:50.806Z,9.02
2022-11-09T07:13:57.399Z,9.23
2022-11-09T07:17:01.068Z,9.77
2022-11-09T07:20:05.215Z,9.55
2022-11-09T07:23:09.776Z,7.35
2022-11-09T07:26:12.897Z,7.10
2022-11-09T07:29:17.395Z,7.75
2022-11-09T07:32:27.418Z,8.70
2022-11-09T07:35:44.082Z,9.02
2022-11-09T07:38:48.666Z,9.32
2022-11-09T07:41:51.875Z,9.73
2022-11-09T07:44:55.033Z,8.63
2022-11-09T07:47:58.666Z,10.27
2022-11-09T07:51:02.473Z,9.90
2022-11-09T07:54:07.340Z,10.55
2022-11-09T07:57:10.647Z,9.93
2022-11-09T08:00:19.865Z,10.73
2022-11-09T08:03:26.130Z,9.57
2022-11-09T08:06:29.436Z,8.75
2022-11-09T08:09:33.977Z,8.20
2022-11-09T08:12:37.639Z,8.15
2022-11-09T08:15:41.875Z,8.55
2022-11-09T08:18:45.417Z,9.43
2022-11-09T08:21:48.554Z,8.55
2022-11-09T08:24:53.027Z,9.55
2022-11-09T08:27:57.406Z,9.10
2022-11-09T08:31:02.591Z,10.00
2022-11-09T08:34:05.723Z,9.85
2022-11-09T08:37:09.425Z,9.35
2022-11-09T08:40:15.367Z,9.95
2022-11-09T08:43:18.502Z,9.75
2022-11-09T08:46:21.574Z,10.02
2022-11-09T08:49:24.771Z,8.98
2022-11-09T08:52:28.105Z,8.73
2022-11-09T08:55:32.615Z,9.13
2022-11-09T08:58:36.423Z,9.43
2022-11-09T09:01:39.559Z,8.65
2022-11-09T09:04:42.896Z,9.23
2022-11-09T09:07:46.002Z,9.00
2022-11-09T09:10:50.517Z,9.38
2022-11-09T09:13:53.821Z,8.77
2022-11-09T09:16:57.074Z,9.65
2022-11-09T09:20:00.224Z,9.48
2022-11-09T09:23:03.416Z,10.43
2022-11-09T09:26:08.274Z,10.75
2022-11-09T09:29:13.247Z,13.02
2022-11-09T09:32:16.334Z,13.23
2022-11-09T09:35:20.098Z,13.55
2022-11-09T09:38:23.564Z,13.35
2022-11-09T09:41:36.016Z,11.73
2022-11-09T09:44:44.263Z,9.63
2022-11-09T09:47:54.220Z,10.48
2022-11-09T09:51:03.938Z,10.15
2022-11-09T09:54:13.600Z,10.45
2022-11-09T09:57:21.588Z,9.90
2022-11-09T10:00:27.782Z,10.00
2022-11-09T10:03:30.901Z,10.43
2022-11-09T10:06:44.519Z,11.13
2022-11-09T10:10:11.088Z,11.20
2022-11-09T10:13:43.101Z,12.10
2022-11-09T10:16:53.614Z,11.63
2022-11-09T10:20:10.882Z,11.98
2022-11-09T10:23:31.131Z,12.15
2022-11-09T10:26:42.284Z,11.65
2022-11-09T10:29:49.840Z,11.13
2022-11-09T10:34:18.646Z,13.15
2022-11-09T10:37:27.053Z,11.43
2022-11-09T10:40:35.863Z,12.85
2022-11-09T10:43:57.607Z,14.05
2022-11-09T10:47:20.142Z,12.23
2022-11-09T10:50:49.935Z,13.02
2022-11-09T10:54:17.288Z,12.18
2022-11-09T10:57:51.819Z,11.48
2022-11-09T11:01:16.316Z,11.50
2022-11-09T11:04:38.301Z,10.88
2022-11-09T11:08:20.825Z,10.70
2022-11-09T11:11:42.408Z,12.40
2022-11-09T11:15:04.519Z,11.98
2022-11-09T11:18:28.050Z,10.98
2022-11-09T11:22:15.449Z,10.63
2022-11-09T11:25:55.464Z,10.88
2022-11-09T11:29:44.909Z,9.85
2022-11-09T11:33:15.420Z,10.10
2022-11-09T11:36:49.490Z,10.60
2022-11-09T11:40:20.286Z,9.65
2022-11-09T11:43:54.699Z,8.70
2022-11-09T11:47:24.792Z,11.50
2022-11-09T11:50:52.324Z,11.10
2022-11-09T11:54:23.797Z,10.32
2022-11-09T11:58:01.743Z,8.55
2022-11-09T12:01:37.904Z,8.20
2022-11-09T12:05:26.075Z,8.27
2022-11-09T12:09:01.215Z,9.00
2022-11-09T12:12:35.776Z,7.60
2022-11-09T12:16:05.329Z,9.68
2022-11-09T12:19:44.023Z,6.13
2022-11-09T12:23:29.262Z,6.13
2022-11-09T12:27:30.363Z,5.43
2022-11-09T12:31:03.642Z,6.07
2022-11-09T12:34:30.683Z,6.43
2022-11-09T12:37:58.438Z,5.25
2022-11-09T12:41:24.996Z,5.40
2022-11-09T12:44:56.488Z,6.50
2022-11-09T12:48:24.158Z,7.78
2022-11-09T12:51:46.131Z,7.00
2022-11-09T12:55:14.749Z,7.75
2022-11-09T12:58:38.894Z,8.00
2022-11-09T13:02:02.809Z,6.63
2022-11-09T13:05:32.760Z,7.85
2022-11-09T13:09:01.621Z,8.23
2022-11-09T13:16:11.261Z,7.85
2022-11-09T13:19:51.185Z,6.93
2022-11-09T13:27:42.627Z,9.80
2022-11-09T13:31:05.263Z,6.80
2022-11-09T13:34:57.709Z,8.70
2022-11-09T13:38:21.020Z,6.45
2022-11-09T13:41:44.716Z,7.28
2022-11-09T13:45:34.156Z,6.50
2022-11-09T13:48:56.344Z,8.85
2022-11-09T13:52:46.619Z,6.55
2022-11-09T13:56:16.710Z,6.63
2022-11-09T13:59:42.959Z,8.13
2022-11-09T14:03:18.887Z,8.82
2022-11-09T14:06:40.759Z,6.30
2022-11-09T14:10:08.391Z,6.85
2022-11-09T14:13:53.466Z,7.78
2022-11-09T14:17:22.251Z,7.75
2022-11-09T14:20:54.814Z,8.63
2022-11-09T14:24:19.671Z,7.93
2022-11-09T14:27:47.935Z,10.07
2022-11-09T14:31:23.035Z,10.05
2022-11-09T14:34:44.564Z,10.32
2022-11-09T14:38:19.812Z,14.80
2022-11-09T14:41:45.845Z,10.55
2022-11-09T14:45:15.466Z,12.00
2022-11-09T14:48:42.008Z,15.25
2022-11-09T14:52:06.779Z,14.55
2022-11-09T14:55:31.160Z,16.92
2022-11-09T14:58:54.244Z,9.32
2022-11-09T15:02:18.440Z,13.70
2022-11-09T15:05:41.732Z,12.82
2022-11-09T15:09:06.912Z,12.73
2022-11-09T15:12:30.619Z,14.50
2022-11-09T15:15:53.660Z,13.68
2022-11-09T15:19:23.962Z,19.33
2022-11-09T15:22:52.260Z,20.17
2022-11-09T15:26:29.799Z,23.17
2022-11-09T15:29:52.747Z,23.85
2022-11-09T15:33:21.379Z,24.17
2022-11-09T15:36:46.117Z,20.60
2022-11-09T15:40:12.414Z,19.65
2022-11-09T15:43:34.445Z,20.67
2022-11-09T15:46:57.963Z,19.73
2022-11-09T15:50:23.189Z,21.15
2022-11-09T15:53:45.504Z,21.40
2022-11-09T15:57:07.577Z,21.90
2022-11-09T16:00:29.505Z,20.65
2022-11-09T16:03:52.651Z,23.80
2022-11-09T16:07:16.574Z,20.67
2022-11-09T16:10:39.777Z,22.75
2022-11-09T16:14:02.482Z,20.52
2022-11-09T16:17:24.115Z,21.15
2022-11-09T16:20:46.953Z,21.83
2022-11-09T16:24:08.644Z,28.17
2022-11-09T16:34:12.569Z,22.15
2022-11-09T16:37:38.357Z,25.30
2022-11-09T16:41:01.692Z,24.00
2022-11-09T16:44:25.205Z,17.25
2022-11-09T16:47:49.518Z,19.52
2022-11-09T16:51:12.628Z,19.35
2022-11-09T16:54:34.265Z,16.98
2022-11-09T16:57:56.097Z,16.65
2022-11-09T17:01:23.035Z,21.92
2022-11-09T17:04:45.622Z,19.88
2022-11-09T17:08:10.122Z,20.25
2022-11-09T17:11:32.297Z,19.80
2022-11-09T17:14:54.171Z,25.63
2022-11-09T17:18:16.209Z,24.58
2022-11-09T17:21:38.251Z,32.05
2022-11-09T17:25:01.192Z,30.60
2022-11-09T17:28:23.287Z,32.15
2022-11-09T17:31:45.304Z,25.67
2022-11-09T17:35:07.094Z,28.65
2022-11-09T17:38:29.334Z,34.70
2022-11-09T17:41:52.402Z,34.35
2022-11-09T17:45:14.438Z,33.90
2022-11-09T17:48:37.464Z,36.92
2022-11-09T17:51:59.281Z,40.45
2022-11-09T17:55:20.913Z,31.00
2022-11-09T17:58:45.874Z,36.15
2022-11-09T18:02:07.888Z,28.85
2022-11-09T18:05:29.648Z,29.35
2022-11-09T18:09:19.308Z,29.35
2022-11-09T18:12:33.471Z,29.25
2022-11-09T18:15:56.370Z,30.35
2022-11-09T18:19:17.984Z,29.15
2022-11-09T18:22:39.960Z,32.10
2022-11-09T18:26:01.804Z,30.60
2022-11-09T18:29:24.244Z,33.50
2022-11-09T18:32:47.786Z,29.83
2022-11-09T18:36:12.618Z,27.73
2022-11-09T18:39:34.255Z,22.63
2022-11-09T18:42:56.271Z,42.03
2022-11-09T18:46:19.959Z,31.67
2022-11-09T18:49:43.400Z,32.55
2022-11-09T18:53:05.029Z,92.05
2022-11-09T18:56:26.756Z,48.45
2022-11-09T18:59:48.296Z,28.17
2022-11-09T19:03:10.745Z,29.25
2022-11-09T19:06:36.426Z,29.50
2022-11-09T19:09:58.142Z,23.77
2022-11-09T19:13:19.832Z,25.90
2022-11-09T19:16:41.388Z,20.77
2022-11-09T19:20:03.122Z,16.55
2022-11-09T19:23:32.812Z,13.93
2022-11-09T19:26:55.829Z,9.23
2022-11-09T19:30:17.896Z,8.27
2022-11-09T19:33:39.552Z,9.07
2022-11-09T19:37:01.638Z,8.98
2022-11-09T19:40:24.705Z,11.50
2022-11-09T19:43:50.143Z,11.50
2022-11-09T19:47:12.752Z,17.02
2022-11-09T19:50:34.683Z,14.82
2022-11-09T19:53:58.149Z,16.77
2022-11-09T19:57:20.934Z,13.23
2022-11-09T20:00:42.906Z,14.15
2022-11-09T20:04:09.948Z,12.85
2022-11-09T20:07:33.118Z,13.68
2022-11-09T20:10:55.417Z,13.82
2022-11-09T20:14:18.552Z,16.83
2022-11-09T20:17:40.373Z,16.15
2022-11-09T20:21:01.744Z,15.38
2022-11-09T20:24:23.450Z,16.35
2022-11-09T20:27:45.362Z,11.23
2022-11-09T20:31:11.634Z,11.07
2022-11-09T20:34:33.479Z,11.65
2022-11-09T20:37:55.261Z,13.10
2022-11-09T20:41:18.694Z,13.73
2022-11-09T20:44:42.384Z,14.07
2022-11-09T20:48:19.447Z,13.60
2022-11-09T20:51:47.939Z,13.15
2022-11-09T20:55:10.669Z,13.73
2022-11-09T20:58:32.572Z,11.20
2022-11-09T21:01:53.938Z,11.98
2022-11-09T21:05:17.544Z,13.52
2022-11-09T21:08:39.780Z,13.90
2022-11-09T21:12:18.777Z,14.68
2022-11-09T21:15:40.710Z,22.33
2022-11-09T21:19:02.259Z,19.25
2022-11-09T21:22:45.978Z,21.02
2022-11-09T21:26:27.869Z,22.27
2022-11-09T21:29:52.863Z,23.90
2022-11-09T21:33:15.188Z,23.77
2022-11-09T21:36:37.214Z,29.38
2022-11-09T21:40:00.730Z,31.65
2022-11-09T21:43:23.217Z,23.38
2022-11-09T21:46:45.589Z,14.05
2022-11-09T21:50:12.939Z,13.15
2022-11-09T21:53:37.064Z,11.73
2022-11-09T21:57:01.552Z,12.00
2022-11-09T22:00:23.657Z,10.15
2022-11-09T22:03:46.615Z,9.93
2022-11-09T22:07:09.453Z,8.95
2022-11-09T22:10:31.562Z,10.40
2022-11-09T22:14:12.380Z,12.15
2022-11-09T22:17:34.339Z,10.98
2022-11-09T22:20:56.398Z,10.25
2022-11-09T22:24:18.030Z,10.27
2022-11-09T22:27:40.045Z,9.25
2022-11-09T22:34:12.387Z,6.97
2022-11-09T22:37:34.020Z,6.40
2022-11-09T22:41:01.389Z,7.45
2022-11-09T22:44:23.030Z,7.00
2022-11-09T22:47:44.595Z,7.90
2022-11-09T22:51:07.903Z,5.82
2022-11-09T22:54:29.344Z,6.22
2022-11-09T22:57:50.866Z,7.47
2022-11-09T23:01:13.935Z,8.98
2022-11-09T23:04:36.059Z,8.63
2022-11-09T23:07:58.960Z,7.35
2022-11-09T23:11:22.951Z,6.15
2022-11-09T23:15:02.381Z,6.80
2022-11-09T23:18:41.801Z,6.43
2022-11-09T23:22:03.532Z,5.85
2022-11-09T23:25:44.241Z,5.07
2022-11-09T23:29:06.169Z,5.00
2022-11-09T23:32:27.761Z,4.28
2022-11-09T23:35:49.335Z,4.47
2022-11-09T23:39:11.119Z,3.90
2022-11-09T23:42:34.415Z,4.10
2022-11-09T23:45:58.217Z,3.53
2022-11-09T23:49:20.199Z,3.25
2022-11-09T23:52:41.863Z,3.47
2022-11-09T23:56:04.969Z,3.08
2022-11-09T23:59:28.123Z,4.03
